OTBDOMSJ

Guest
Details From OTBD - DOHA INTL
To OMSJ - SHARJAH INTL
Flight Number -
Tags generated
Created
Modified
Stats Distance 215 nm / 398 km
Max Altitude 23,400 ft / 7,132 m
Waypoints 4
Social Downloads 4
Likes 0
Share VATSIM

Download

Looking for another format? Having issues loading an existing format? Contact us
Advertisement - Login to hide

Notes

Basic altitude profile: - Ascent Rate: 2500ft/min - Ascent Speed: 250kts - Cruise Altitude: 35000ft - Cruise Speed: 420kts - Descent Rate: 1500ft/min - Descent Speed: 250kts

Route

OTBD DUMPI A415 ASKOP OMSJ

ID Type Via Altitude Latitude Longitude Leg Dist Tot Dist Heading (true) Name
O OTBD APT - 0 ft / 0 m 25.26106˚ 51.56500˚ - 0 nm - DOHA INTL
DUMPI FIX - 23,400 ft / 7,132 m 25.29028˚ 53.41667˚ 100 nm 100 nm 89° / 89° -
ASKOP FIX A415 (AWY-HI) 15,000 ft / 4,572 m 25.30750˚ 54.14139˚ 39 nm 139 nm 88° / 89° -
O OMSJ APT - 0 ft / 0 m 25.32859˚ 55.51722˚ 74 nm 214 nm 89° / 89° SHARJAH INTL

Altitude Profile

Advertisement - Login to hide

Weather


0- 5 10 15 20 25 30 35+ Temperature / ° C

Clouds and Precipitation
Forecast for 2018-05-20 12:00 UTC. Updated 2 hours ago

Ground ~20,000 ft ~40,000 ft Winds

OTBD

Details ICAO OTBD (DOH)
Name DOHA INTL
Region Qatar
Timezone Asia/Qatar (UTC+3.0)
Stats Elevation 35 ft / 11 m (AMSL)
Location 25.261056° 51.564999°
Runways 1
Magnetic Variation 2.501° E

METAR

OTBD 201200Z 09010KT CAVOK 34/16 Q1007 NOSIG

Decode

TAF

TAF OTBD 201107Z 2012/2118 09008KT 8000 NSC BECMG 2020/2022 VRB02KT

Decode

Departure Runways

ID Width Length Bearing (true) Bearing (mag) Surface Threshold Offset Overrun Length
16 151 ft / 46 m 15,065 ft / 4,592 m 158.20° 155.70° Asphalt 2,460 ft / 750 m 98 ft / 30 m
34 151 ft / 46 m 15,065 ft / 4,592 m 338.21° 335.71° Asphalt 0 ft / 0 m 460 ft / 140 m

OMSJ

Details ICAO OMSJ (SHJ)
Name SHARJAH INTL
Region United Arab Emirates
Timezone Asia/Dubai (UTC+4.0)
Stats Elevation 111 ft / 34 m (AMSL)
Location 25.328587° 55.517218°
Runways 1
Magnetic Variation 2.065° E

METAR

OMSJ 201200Z 30011KT CAVOK 34/17 Q1007

Decode

TAF

TAF OMSJ 201058Z 2012/2118 34014KT 8000 NSC BECMG 2018/2020 10005KT PROB30 2100/2104 3000 HZ BECMG 2108/2110 35015KT BECMG 2115/2117 10005KT

Decode

Destination Runways

ID Width Length Bearing (true) Bearing (mag) Surface Threshold Offset Overrun Length
12 148 ft / 45 m 13,266 ft / 4,043 m 122.45° 120.39° Asphalt 689 ft / 210 m 488 ft / 149 m
30 148 ft / 45 m 13,266 ft / 4,043 m 302.47° 300.41° Asphalt 984 ft / 300 m 488 ft / 149 m

Approach Navaids

Runway Type Ident Frequency Range Bearing (true) Bearing (mag) Slope Elevation
30 Localiser ISJ 109.70 MHz 18 nm / 33 km 302.45° 300.38° - 111 ft / 34 m (AMSL)
30 Glidescope ISJ 109.70 MHz 10 nm / 19 km 302.46° 300.40° 3.00° 111 ft / 34 m (AMSL)

Popular Alternatives